»·PEaware :: DAL1850 KSNA-KEGE

DAL1850 :: KSNA-KEGE

FLIGHT INFORMATION

Flight Status: Arrived
Operator:
Delta Air Lines
More flights by this operator :: More flights under this callsign
Pilot: Jacob H. (10561)
Aircraft: AIRBUS A320
(A320)
More flights by this aircraft type
Origin: KSNA John Wayne-Orange Co
United States
Destination: KEGE Eagle Co Regl
United States
More flights between these airports :: More routes between these airports
Route: +STREL4 TRM J236 EED PGS DVC WOLLF TELLR2
File this flight plan on PilotEdge
Remarks:
Altitude:
(Current/Filed)
37,000ft
Speed:
(Current/Filed)
300kts
Departed: 15-Jan-17 12:28 PM
Arrived: 15-Jan-17 02:32 PM
Distance/Time
Traveled:
636nm/2:04
Distance/Time
To Go:
Arrived

Flight Plot

Page will automatically refresh every two minutes.

Flight plan parsing failed; only flown route is shown


Map Options




Map Legend


Flown Route
Filed Route
Departure Airport
Arrival Airport
Navaid (VOR, NDB)
Fix

Horizontal Profiles

Position Reports

Time Latitude Longitude Heading Altitude Ground
Speed
15-Jan-17 11:42 33.680463 -117.861633 118 43ft 0kts
15-Jan-17 11:43 33.680463 -117.861633 118 43ft 0kts
15-Jan-17 11:44 33.680463 -117.861633 118 43ft 0kts
15-Jan-17 11:45 33.680463 -117.861633 118 43ft 0kts
15-Jan-17 11:46 33.680463 -117.861633 118 43ft 0kts
15-Jan-17 11:47 33.680463 -117.861633 118 43ft 0kts
15-Jan-17 11:48 33.680463 -117.861633 118 43ft 0kts
15-Jan-17 11:49 33.680463 -117.861633 118 43ft 0kts
15-Jan-17 11:50 33.680463 -117.861633 118 43ft 0kts
15-Jan-17 11:51 33.680463 -117.861633 118 43ft 0kts
15-Jan-17 11:52 33.680463 -117.861633 118 43ft 0kts
15-Jan-17 11:53 33.680463 -117.861633 118 43ft 0kts
15-Jan-17 11:54 33.680463 -117.861633 118 43ft 0kts
15-Jan-17 11:55 33.680463 -117.861633 118 43ft 0kts
15-Jan-17 11:56 33.680463 -117.861633 118 43ft 0kts
15-Jan-17 11:57 33.680463 -117.861633 118 43ft 0kts
15-Jan-17 11:58 33.680463 -117.861633 118 43ft 0kts
15-Jan-17 11:59 33.680463 -117.861633 118 43ft 0kts
15-Jan-17 12:00 33.680463 -117.861633 118 43ft 0kts
15-Jan-17 12:01 33.680463 -117.861633 118 43ft 0kts
15-Jan-17 12:02 33.680463 -117.861633 118 43ft 0kts
15-Jan-17 12:03 33.680463 -117.861633 118 43ft 0kts
15-Jan-17 12:04 33.680463 -117.861633 118 43ft 0kts
15-Jan-17 12:05 33.680463 -117.861633 118 43ft 0kts
15-Jan-17 12:06 33.680463 -117.861633 118 43ft 0kts
15-Jan-17 12:07 33.680463 -117.861633 118 43ft 0kts
15-Jan-17 12:08 33.680463 -117.861633 118 43ft 0kts
15-Jan-17 12:09 33.680463 -117.861633 118 43ft 0kts
15-Jan-17 12:10 33.680463 -117.861633 118 43ft 0kts
15-Jan-17 12:11 33.680463 -117.861633 118 43ft 0kts
15-Jan-17 12:12 33.680463 -117.861633 118 43ft 0kts
15-Jan-17 12:13 33.680463 -117.861633 118 43ft 0kts
15-Jan-17 12:14 33.680463 -117.861633 118 43ft 0kts
15-Jan-17 12:15 33.680548 -117.861827 118 44ft 0kts
15-Jan-17 12:16 33.681008 -117.862251 187 43ft 0kts
15-Jan-17 12:17 33.681008 -117.862251 187 43ft 0kts
15-Jan-17 12:18 33.681008 -117.862251 187 43ft 0kts
15-Jan-17 12:19 33.681008 -117.862251 187 43ft 0kts
15-Jan-17 12:20 33.681008 -117.862251 187 43ft 0kts
15-Jan-17 12:21 33.681008 -117.862251 187 43ft 0kts
15-Jan-17 12:22 33.681008 -117.862251 187 43ft 0kts
15-Jan-17 12:23 33.681008 -117.862251 187 43ft 0kts
15-Jan-17 12:24 33.680900 -117.863714 298 44ft 15kts
15-Jan-17 12:25 33.681100 -117.865380 206 44ft 0kts
15-Jan-17 12:26 33.681100 -117.865380 206 44ft 0kts
15-Jan-17 12:27 33.681100 -117.865380 206 44ft 0kts
15-Jan-17 12:28 33.659573 -117.879124 201 740ft 171kts
15-Jan-17 12:29 33.612313 -117.891520 187 2562ft 225kts
15-Jan-17 12:30 33.547620 -117.881677 155 5273ft 262kts
15-Jan-17 12:31 33.497056 -117.826157 118 7936ft 285kts
15-Jan-17 12:32 33.479629 -117.740985 84 10215ft 304kts
15-Jan-17 12:33 33.508811 -117.642255 60 10804ft 381kts
15-Jan-17 12:34 33.559992 -117.532980 58 13005ft 406kts
15-Jan-17 12:35 33.585493 -117.411845 85 15254ft 425kts
15-Jan-17 12:36 33.590233 -117.304379 86 16910ft 436kts
15-Jan-17 12:37 33.594473 -117.191901 86 18353ft 447kts
15-Jan-17 12:38 33.599561 -117.051397 85 19796ft 459kts
15-Jan-17 12:39 33.604589 -116.908047 85 20966ft 472kts
15-Jan-17 12:40 33.609954 -116.760447 85 22203ft 483kts
15-Jan-17 12:41 33.614863 -116.611207 85 23429ft 494kts
15-Jan-17 12:42 33.619901 -116.451159 85 24794ft 504kts
15-Jan-17 12:43 33.624883 -116.286042 85 26660ft 503kts
15-Jan-17 12:44 33.652577 -116.129916 49 28151ft 485kts
15-Jan-17 12:45 33.734279 -116.006032 46 29577ft 482kts
15-Jan-17 12:46 33.817483 -115.884520 45 30770ft 481kts
15-Jan-17 12:47 33.901011 -115.762792 46 31795ft 480kts
15-Jan-17 12:48 33.981516 -115.644600 45 32678ft 480kts
15-Jan-17 12:49 34.060167 -115.528750 45 33456ft 479kts
15-Jan-17 12:50 34.139036 -115.412194 45 34164ft 478kts
15-Jan-17 12:51 34.216485 -115.297368 45 34803ft 477kts
15-Jan-17 12:52 34.295162 -115.180342 45 35374ft 475kts
15-Jan-17 12:53 34.370529 -115.067868 45 35979ft 472kts
15-Jan-17 12:54 34.447332 -114.952892 45 36566ft 470kts
15-Jan-17 12:55 34.523193 -114.839452 45 36984ft 471kts
15-Jan-17 12:56 34.599777 -114.724345 45 37094ft 471kts
15-Jan-17 12:57 34.676215 -114.608828 45 37090ft 471kts
15-Jan-17 12:58 34.750768 -114.496921 44 37093ft 470kts
15-Jan-17 12:59 34.838218 -114.397098 35 37087ft 462kts
15-Jan-17 13:00 34.929099 -114.299668 35 37078ft 459kts
15-Jan-17 13:01 35.017427 -114.204778 37 37077ft 454kts
15-Jan-17 13:02 35.106011 -114.109305 37 37088ft 453kts
15-Jan-17 13:03 35.192394 -114.015941 37 37093ft 453kts
15-Jan-17 13:04 35.279543 -113.921471 37 37093ft 453kts
15-Jan-17 13:05 35.366114 -113.827784 38 37092ft 453kts
15-Jan-17 13:06 35.453632 -113.732405 38 37092ft 453kts
15-Jan-17 13:07 35.541807 -113.635960 38 37092ft 453kts
15-Jan-17 13:08 35.627827 -113.536899 51 37099ft 459kts
15-Jan-17 13:09 35.692142 -113.411121 54 37092ft 461kts
15-Jan-17 13:10 35.755471 -113.285502 54 37093ft 461kts
15-Jan-17 13:11 35.816505 -113.163897 54 37087ft 461kts
15-Jan-17 13:12 35.877508 -113.041918 54 37085ft 461kts
15-Jan-17 13:13 35.940285 -112.915972 55 37085ft 467kts
15-Jan-17 13:14 36.002988 -112.790402 57 37083ft 467kts
15-Jan-17 13:15 36.064164 -112.666770 57 37083ft 467kts
15-Jan-17 13:16 36.126198 -112.540902 57 37084ft 467kts
15-Jan-17 13:17 36.188771 -112.413467 57 37083ft 467kts
15-Jan-17 13:18 36.250407 -112.287468 57 37084ft 467kts
15-Jan-17 13:19 36.311468 -112.162180 57 37083ft 467kts
15-Jan-17 13:20 36.373467 -112.034500 57 37082ft 467kts
15-Jan-17 13:21 36.434833 -111.907634 57 37066ft 467kts
15-Jan-17 13:22 36.497051 -111.779292 58 37047ft 467kts
15-Jan-17 13:23 36.557167 -111.654154 58 37044ft 467kts
15-Jan-17 13:24 36.617353 -111.528585 58 37048ft 467kts
15-Jan-17 13:25 36.675267 -111.407057 58 37048ft 467kts
15-Jan-17 13:26 36.734713 -111.281844 58 37047ft 467kts
15-Jan-17 13:27 36.791885 -111.160974 58 37047ft 467kts
15-Jan-17 13:28 36.851277 -111.034982 59 37047ft 467kts
15-Jan-17 13:29 36.909941 -110.910021 60 37049ft 463kts
15-Jan-17 13:30 36.967934 -110.786808 61 37045ft 460kts
15-Jan-17 13:31 37.027456 -110.659158 61 37046ft 460kts
15-Jan-17 13:32 37.086407 -110.532152 62 37050ft 460kts
15-Jan-17 13:33 37.145980 -110.403287 62 37058ft 459kts
15-Jan-17 13:34 37.205128 -110.274849 62 37058ft 459kts
15-Jan-17 13:35 37.262638 -110.149501 62 37056ft 458kts
15-Jan-17 13:36 37.320058 -110.023863 62 37059ft 458kts
15-Jan-17 13:37 37.379033 -109.894313 63 37055ft 459kts
15-Jan-17 13:38 37.438646 -109.763715 63 37058ft 458kts
15-Jan-17 13:39 37.495920 -109.636955 63 37056ft 458kts
15-Jan-17 13:40 37.553846 -109.508188 63 37055ft 458kts
15-Jan-17 13:41 37.613592 -109.375121 62 37043ft 459kts
15-Jan-17 13:42 37.670086 -109.248568 63 37046ft 463kts
15-Jan-17 13:43 37.728383 -109.117428 63 37040ft 465kts
15-Jan-17 13:44 37.787892 -108.982985 63 37044ft 466kts
15-Jan-17 13:45 37.849175 -108.849545 61 37021ft 469kts
15-Jan-17 13:46 37.912176 -108.720383 61 37024ft 468kts
15-Jan-17 13:47 37.974800 -108.591740 61 37029ft 468kts
15-Jan-17 13:48 38.035018 -108.467567 61 37028ft 468kts
15-Jan-17 13:49 38.094527 -108.344396 61 37014ft 469kts
15-Jan-17 13:50 38.156357 -108.215927 61 37013ft 469kts
15-Jan-17 13:51 38.217997 -108.087346 61 37027ft 468kts
15-Jan-17 13:52 38.281596 -107.954141 61 37032ft 469kts
15-Jan-17 13:53 38.345093 -107.821373 62 37036ft 469kts
15-Jan-17 13:54 38.406913 -107.690958 62 37034ft 469kts
15-Jan-17 13:55 38.439698 -107.621521 62 37037ft 468kts
15-Jan-17 13:56 38.499179 -107.490616 63 37037ft 468kts
15-Jan-17 13:57 38.559006 -107.358830 63 37020ft 468kts
15-Jan-17 13:58 38.618099 -107.228477 63 37001ft 468kts
15-Jan-17 13:59 38.689750 -107.108145 28 34656ft 482kts
15-Jan-17 14:00 38.809885 -107.108117 348 31550ft 484kts
15-Jan-17 14:01 38.931605 -107.131704 348 28711ft 479kts
15-Jan-17 14:02 39.051617 -107.152813 351 25949ft 469kts
15-Jan-17 14:03 39.166213 -107.186366 349 23960ft 440kts
15-Jan-17 14:04 39.263365 -107.216058 349 22399ft 392kts
15-Jan-17 14:05 39.353532 -107.243819 349 19472ft 366kts
15-Jan-17 14:06 39.438469 -107.268914 349 16551ft 346kts
15-Jan-17 14:07 39.520515 -107.291391 349 14014ft 331kts
15-Jan-17 14:08 39.601615 -107.312692 349 14012ft 325kts
15-Jan-17 14:09 39.682539 -107.333896 349 14009ft 325kts
15-Jan-17 14:10 39.764070 -107.355251 349 14005ft 325kts
15-Jan-17 14:11 39.843082 -107.375929 349 14001ft 325kts
15-Jan-17 14:12 39.916866 -107.366463 47 14014ft 322kts
15-Jan-17 14:13 39.908638 -107.274005 125 14012ft 329kts
15-Jan-17 14:14 39.882854 -107.176931 101 14017ft 326kts
15-Jan-17 14:15 39.866795 -107.073299 99 14018ft 326kts
15-Jan-17 14:16 39.851679 -106.968514 99 14019ft 326kts
15-Jan-17 14:17 39.837661 -106.870015 99 14015ft 274kts
15-Jan-17 14:18 39.826655 -106.791863 99 14011ft 246kts
15-Jan-17 14:19 39.816454 -106.721176 99 14004ft 236kts
15-Jan-17 14:20 39.806959 -106.655782 99 14018ft 222kts
15-Jan-17 14:21 39.798585 -106.594673 98 14019ft 222kts
15-Jan-17 14:22 39.785335 -106.531000 136 14023ft 227kts
15-Jan-17 14:23 39.740593 -106.521673 187 14007ft 233kts
15-Jan-17 14:24 39.699765 -106.555992 228 13993ft 213kts
15-Jan-17 14:25 39.686688 -106.616464 258 12635ft 206kts
15-Jan-17 14:26 39.678304 -106.671022 259 11192ft 164kts
15-Jan-17 14:27 39.671390 -106.717954 260 10196ft 169kts
15-Jan-17 14:28 39.664214 -106.767101 259 9286ft 160kts
15-Jan-17 14:29 39.654976 -106.814605 258 8189ft 161kts
15-Jan-17 14:30 39.648433 -106.865167 262 7262ft 155kts
15-Jan-17 14:31 39.643130 -106.913900 261 6503ft 111kts
15-Jan-17 14:32 39.641487 -106.924200 192 6472ft 6kts
15-Jan-17 14:33 39.641114 -106.924150 153 6473ft 10kts
15-Jan-17 14:34 39.641420 -106.919512 80 6484ft 23kts
15-Jan-17 14:35 39.640743 -106.916813 171 6498ft 0kts
15-Jan-17 14:36 39.640743 -106.916813 171 6498ft 0kts

Navigation Log

Ident Type
Flight plan parsing failed, navigation log unavailable